createdAt,value
2017-06-05T00:00:58.126Z,11.60
2017-06-05T00:03:24.352Z,11.70
2017-06-05T00:05:50.575Z,11.60
2017-06-05T00:08:16.762Z,11.50
2017-06-05T00:10:42.944Z,11.60
2017-06-05T00:13:09.149Z,11.70
2017-06-05T00:15:35.349Z,11.90
2017-06-05T00:18:01.545Z,12.10
2017-06-05T00:20:27.748Z,12.20
2017-06-05T00:22:53.928Z,12.20
2017-06-05T00:25:20.153Z,12.40
2017-06-05T00:27:46.341Z,12.30
2017-06-05T00:30:12.529Z,12.30
2017-06-05T00:32:39.000Z,12.30
2017-06-05T00:35:05.194Z,12.30
2017-06-05T00:37:31.401Z,12.20
2017-06-05T00:39:57.571Z,12.20
2017-06-05T00:42:23.772Z,12.20
2017-06-05T00:44:49.953Z,12.30
2017-06-05T00:47:16.156Z,12.20
2017-06-05T00:49:42.352Z,12.30
2017-06-05T00:52:08.515Z,12.40
2017-06-05T00:54:34.728Z,12.20
2017-06-05T00:57:00.925Z,12.10
2017-06-05T00:59:27.104Z,12.20
2017-06-05T01:01:53.301Z,12.20
2017-06-05T01:04:19.471Z,12.20
2017-06-05T01:06:45.707Z,12.20
2017-06-05T01:09:11.892Z,12.10
2017-06-05T01:11:38.096Z,12.10
2017-06-05T01:14:04.305Z,12.00
2017-06-05T01:16:30.498Z,12.10
2017-06-05T01:18:57.424Z,12.00
2017-06-05T01:21:23.640Z,12.00
2017-06-05T01:23:49.821Z,12.10
2017-06-05T01:26:16.000Z,12.10
2017-06-05T01:28:42.208Z,12.10
2017-06-05T01:31:08.416Z,12.10
2017-06-05T01:33:34.592Z,12.20
2017-06-05T01:36:00.797Z,12.20
2017-06-05T01:38:27.008Z,12.20
2017-06-05T01:40:53.222Z,12.30
2017-06-05T01:43:19.431Z,12.40
2017-06-05T01:45:45.652Z,12.40
2017-06-05T01:48:11.893Z,12.40
2017-06-05T01:50:38.117Z,12.20
2017-06-05T01:53:04.328Z,12.10
2017-06-05T01:55:30.509Z,12.20
2017-06-05T01:57:56.749Z,12.10
2017-06-05T02:00:22.944Z,12.10
2017-06-05T02:02:49.120Z,12.10
2017-06-05T02:05:15.325Z,12.00
2017-06-05T02:07:41.544Z,12.10
2017-06-05T02:10:07.708Z,12.00
2017-06-05T02:12:34.640Z,11.90
2017-06-05T02:15:00.853Z,11.90
2017-06-05T02:17:27.033Z,11.90
2017-06-05T02:19:53.204Z,12.00
2017-06-05T02:22:19.448Z,11.90
2017-06-05T02:24:45.653Z,11.90
2017-06-05T02:27:11.829Z,11.90
2017-06-05T02:29:38.805Z,12.00
2017-06-05T02:32:04.975Z,12.00
2017-06-05T02:34:31.151Z,12.00
2017-06-05T02:36:57.375Z,12.20
2017-06-05T02:39:23.579Z,12.10
2017-06-05T02:41:49.757Z,12.00
2017-06-05T02:44:15.961Z,11.90
2017-06-05T02:46:42.133Z,11.90
2017-06-05T02:49:08.305Z,11.80
2017-06-05T02:51:34.508Z,11.80
2017-06-05T02:54:01.424Z,11.80
2017-06-05T02:56:27.620Z,11.80
2017-06-05T02:58:53.838Z,11.90
2017-06-05T03:01:20.036Z,11.90
2017-06-05T03:03:46.229Z,11.90
2017-06-05T03:19:06.371Z,11.80
2017-06-05T03:21:32.548Z,11.80
2017-06-05T03:23:59.525Z,11.70
2017-06-05T03:26:25.729Z,11.70
2017-06-05T03:28:52.642Z,11.80
2017-06-05T03:31:18.820Z,11.80
2017-06-05T03:33:45.472Z,11.80
2017-06-05T03:36:11.641Z,11.70
2017-06-05T03:38:37.876Z,11.60
2017-06-05T03:41:04.097Z,11.60
2017-06-05T03:43:30.289Z,11.60
2017-06-05T03:45:56.467Z,11.70
2017-06-05T03:48:22.680Z,11.60
2017-06-05T03:50:48.860Z,11.70
2017-06-05T03:53:15.043Z,11.60
2017-06-05T03:55:41.253Z,11.60
2017-06-05T03:58:07.420Z,11.70
2017-06-05T04:00:33.603Z,11.80
2017-06-05T04:02:59.811Z,11.70
2017-06-05T04:05:25.996Z,11.70
2017-06-05T04:07:52.192Z,11.70
2017-06-05T04:10:18.401Z,11.70
2017-06-05T04:12:44.580Z,11.70
2017-06-05T04:15:10.800Z,11.70
2017-06-05T04:17:37.014Z,11.70
2017-06-05T04:20:03.184Z,11.70
2017-06-05T04:22:29.363Z,11.70
2017-06-05T04:24:55.576Z,11.70
2017-06-05T04:27:21.762Z,11.50
2017-06-05T04:29:48.296Z,11.50
2017-06-05T04:32:14.499Z,11.50
2017-06-05T04:34:40.691Z,11.50
2017-06-05T04:37:06.889Z,11.60
2017-06-05T04:39:33.103Z,11.50
2017-06-05T04:41:59.285Z,11.60
2017-06-05T04:44:25.497Z,11.70
2017-06-05T04:46:51.711Z,11.70
2017-06-05T04:49:17.895Z,11.70
2017-06-05T04:51:44.077Z,11.60
2017-06-05T04:54:10.279Z,11.50
2017-06-05T04:56:36.496Z,11.50
2017-06-05T04:59:02.708Z,11.40
2017-06-05T05:01:28.875Z,11.60
2017-06-05T05:03:55.444Z,11.70
2017-06-05T05:06:21.640Z,11.60
2017-06-05T05:08:47.814Z,11.70
2017-06-05T05:11:14.028Z,11.90
2017-06-05T05:13:40.212Z,12.00
2017-06-05T05:16:06.404Z,12.10
2017-06-05T05:18:32.620Z,12.00
2017-06-05T05:20:59.545Z,12.20
2017-06-05T05:23:25.720Z,12.10
2017-06-05T05:25:52.009Z,11.90
2017-06-05T05:28:18.197Z,11.90
2017-06-05T05:30:44.372Z,11.90
2017-06-05T05:33:10.635Z,12.00
2017-06-05T05:35:36.807Z,12.10
2017-06-05T05:38:03.043Z,12.30
2017-06-05T05:40:29.219Z,12.50
2017-06-05T05:42:55.389Z,12.60
2017-06-05T05:45:21.869Z,12.70
2017-06-05T05:47:48.048Z,12.80
2017-06-05T05:50:14.244Z,12.80
2017-06-05T05:52:40.447Z,12.80
2017-06-05T05:55:06.625Z,12.80
2017-06-05T05:57:32.799Z,12.90
2017-06-05T05:59:59.008Z,12.90
2017-06-05T06:02:25.196Z,12.90
2017-06-05T06:04:51.369Z,12.90
2017-06-05T06:07:17.568Z,12.90
2017-06-05T06:09:43.800Z,12.90
2017-06-05T06:12:09.980Z,12.80
2017-06-05T06:14:36.160Z,13.00
2017-06-05T06:17:03.113Z,12.90
2017-06-05T06:19:29.322Z,12.90
2017-06-05T06:21:56.303Z,13.00
2017-06-05T06:24:22.404Z,13.00
2017-06-05T06:26:49.320Z,13.10
2017-06-05T06:29:15.613Z,13.10
2017-06-05T06:31:41.867Z,13.00
2017-06-05T06:34:08.040Z,13.10
2017-06-05T06:36:34.243Z,13.20
2017-06-05T06:39:00.445Z,13.20
2017-06-05T06:41:26.624Z,13.20
2017-06-05T06:43:52.864Z,13.20
2017-06-05T06:46:19.057Z,13.30
2017-06-05T06:48:45.977Z,13.30
2017-06-05T06:51:12.208Z,13.30
2017-06-05T06:53:38.380Z,13.30
2017-06-05T06:56:04.549Z,13.50
2017-06-05T06:58:30.767Z,13.40
2017-06-05T07:00:56.962Z,13.40
2017-06-05T07:03:23.171Z,13.50
2017-06-05T07:05:50.160Z,13.70
2017-06-05T07:08:16.335Z,13.70
2017-06-05T07:10:43.311Z,14.00
2017-06-05T07:13:09.516Z,14.00
2017-06-05T07:15:36.429Z,14.00
2017-06-05T07:18:02.716Z,14.00
2017-06-05T07:20:28.929Z,14.10
2017-06-05T07:22:55.112Z,14.00
2017-06-05T07:25:21.309Z,14.10
2017-06-05T07:27:47.521Z,14.30
2017-06-05T07:30:13.717Z,14.50
2017-06-05T07:32:39.938Z,14.80
2017-06-05T07:35:06.108Z,14.90
2017-06-05T07:37:32.313Z,14.90
2017-06-05T07:39:58.532Z,15.00
2017-06-05T07:42:25.448Z,15.10
2017-06-05T07:44:51.632Z,15.10
2017-06-05T07:47:17.859Z,15.30
2017-06-05T07:49:44.033Z,15.30
2017-06-05T07:52:10.205Z,15.30
2017-06-05T07:54:36.433Z,15.20
2017-06-05T07:57:02.609Z,15.20
2017-06-05T07:59:29.564Z,15.30
2017-06-05T08:01:55.924Z,15.20
2017-06-05T08:04:22.193Z,15.10
2017-06-05T08:06:48.368Z,15.10
2017-06-05T08:09:14.589Z,15.10
2017-06-05T08:11:41.536Z,15.20
2017-06-05T08:14:08.461Z,15.10
2017-06-05T08:16:35.452Z,15.00
2017-06-05T08:19:01.636Z,15.00
2017-06-05T08:21:27.820Z,15.00
2017-06-05T08:23:54.152Z,15.10
2017-06-05T08:26:20.371Z,15.10
2017-06-05T08:28:46.549Z,15.20
2017-06-05T08:31:12.744Z,15.30
2017-06-05T08:33:38.966Z,15.20
2017-06-05T08:36:05.154Z,15.30
2017-06-05T08:38:31.342Z,15.30
2017-06-05T08:40:57.637Z,15.30
2017-06-05T08:43:23.837Z,15.40
2017-06-05T08:45:50.025Z,15.40
2017-06-05T08:48:16.312Z,15.50
2017-06-05T08:50:42.608Z,15.50
2017-06-05T08:53:08.816Z,15.40
2017-06-05T08:55:35.014Z,15.50
2017-06-05T08:58:01.216Z,15.60
2017-06-05T09:00:27.432Z,15.50
2017-06-05T09:02:53.656Z,15.50
2017-06-05T09:05:19.962Z,15.50
2017-06-05T09:07:46.184Z,15.50
2017-06-05T09:10:12.482Z,15.50
2017-06-05T09:12:38.684Z,15.50
2017-06-05T09:15:04.881Z,15.60
2017-06-05T09:17:31.088Z,15.50
2017-06-05T09:19:57.300Z,15.50
2017-06-05T09:22:23.572Z,15.60
2017-06-05T09:24:50.532Z,15.50
2017-06-05T09:27:16.803Z,15.50
2017-06-05T09:29:49.174Z,15.50
2017-06-05T09:32:15.373Z,15.40
2017-06-05T09:34:41.556Z,15.50
2017-06-05T09:37:07.783Z,15.40
2017-06-05T09:39:33.969Z,15.40
2017-06-05T09:42:00.212Z,15.60
2017-06-05T09:44:26.397Z,15.70
2017-06-05T09:46:52.604Z,15.70
2017-06-05T09:49:19.593Z,15.60
2017-06-05T09:51:45.816Z,15.50
2017-06-05T09:54:12.010Z,15.60
2017-06-05T09:56:38.970Z,15.20
2017-06-05T09:59:05.147Z,15.10
2017-06-05T10:01:31.380Z,15.30
2017-06-05T10:03:57.557Z,15.40
2017-06-05T10:06:23.757Z,15.40
2017-06-05T10:08:50.750Z,15.20
2017-06-05T10:11:16.936Z,15.20
2017-06-05T10:13:43.863Z,15.20
2017-06-05T10:16:10.104Z,15.20
2017-06-05T10:18:37.027Z,14.80
2017-06-05T10:21:03.226Z,14.80
2017-06-05T10:23:29.509Z,14.70
2017-06-05T10:25:56.426Z,14.70
2017-06-05T10:28:22.644Z,14.70
2017-06-05T10:30:48.869Z,14.80
2017-06-05T10:33:15.079Z,14.70
2017-06-05T10:35:41.256Z,14.70
2017-06-05T10:38:07.492Z,14.80
2017-06-05T10:40:33.683Z,14.80
2017-06-05T10:42:59.935Z,14.90
2017-06-05T10:45:26.105Z,14.80
2017-06-05T10:47:52.312Z,14.70
2017-06-05T10:50:18.541Z,14.80
2017-06-05T10:52:44.772Z,14.80
2017-06-05T10:55:10.947Z,14.70
2017-06-05T10:57:37.178Z,14.90
2017-06-05T11:00:03.383Z,14.90
2017-06-05T11:02:29.579Z,15.00
2017-06-05T11:04:55.783Z,15.10
2017-06-05T11:07:22.802Z,15.00
2017-06-05T11:09:49.021Z,15.00
2017-06-05T11:12:15.201Z,15.10
2017-06-05T11:14:41.408Z,15.20
2017-06-05T11:17:08.361Z,15.20
2017-06-05T11:19:34.540Z,15.20
2017-06-05T11:22:00.753Z,15.10
2017-06-05T11:24:26.936Z,14.90
2017-06-05T11:26:53.112Z,14.90
2017-06-05T11:29:19.374Z,14.60
2017-06-05T11:31:45.563Z,14.60
2017-06-05T11:34:11.782Z,14.60
2017-06-05T11:36:38.000Z,14.70
2017-06-05T11:39:04.208Z,14.50
2017-06-05T11:41:31.138Z,14.80
2017-06-05T11:43:57.339Z,14.80
2017-06-05T11:46:23.644Z,15.10
2017-06-05T11:48:49.844Z,15.00
2017-06-05T11:51:16.037Z,15.00
2017-06-05T11:53:42.254Z,15.40
2017-06-05T11:56:08.470Z,15.70
2017-06-05T11:58:34.673Z,15.90
2017-06-05T12:01:00.920Z,16.00
2017-06-05T12:03:27.108Z,16.10
2017-06-05T12:05:53.319Z,15.90
2017-06-05T12:08:20.289Z,16.00
2017-06-05T12:10:46.481Z,15.90
2017-06-05T12:13:12.676Z,16.10
2017-06-05T12:15:38.910Z,16.30
2017-06-05T12:18:05.128Z,16.00
2017-06-05T12:20:31.321Z,16.00
2017-06-05T12:22:57.504Z,15.80
2017-06-05T12:25:23.753Z,15.20
2017-06-05T12:27:50.671Z,15.10
2017-06-05T12:30:16.876Z,15.10
2017-06-05T12:32:43.084Z,15.50
2017-06-05T12:35:09.290Z,16.00
2017-06-05T12:37:36.280Z,16.10
2017-06-05T12:40:02.473Z,16.10
2017-06-05T12:42:28.728Z,16.40
2017-06-05T12:44:54.934Z,16.60
2017-06-05T12:47:21.160Z,16.90
2017-06-05T12:49:47.389Z,16.70
2017-06-05T12:52:13.626Z,16.80
2017-06-05T12:54:39.820Z,17.00
2017-06-05T12:57:06.046Z,17.00
2017-06-05T12:59:32.303Z,17.20
2017-06-05T13:01:58.479Z,17.40
2017-06-05T13:04:24.737Z,17.50
2017-06-05T13:06:51.721Z,17.80
2017-06-05T13:09:17.925Z,17.80
2017-06-05T13:11:44.141Z,17.90
2017-06-05T13:14:11.105Z,17.60
2017-06-05T13:16:37.318Z,17.60
2017-06-05T13:19:03.520Z,17.60
2017-06-05T13:21:29.712Z,17.60
2017-06-05T13:23:55.934Z,17.40
2017-06-05T13:26:22.135Z,17.20
2017-06-05T13:28:48.347Z,17.10
2017-06-05T13:31:15.369Z,17.30
2017-06-05T13:33:41.692Z,17.20
2017-06-05T13:36:07.888Z,17.30
2017-06-05T13:38:34.088Z,17.20
2017-06-05T13:41:00.342Z,17.30
2017-06-05T13:43:26.524Z,17.40
2017-06-05T13:45:52.744Z,17.60
2017-06-05T13:48:20.771Z,17.70
2017-06-05T13:50:47.847Z,17.70
2017-06-05T13:53:15.768Z,17.70
2017-06-05T13:55:44.514Z,17.80
2017-06-05T13:58:10.750Z,17.80
2017-06-05T14:00:36.962Z,18.00
2017-06-05T14:03:03.253Z,18.00
2017-06-05T14:05:29.464Z,18.10
2017-06-05T14:07:55.689Z,17.70
2017-06-05T14:10:23.562Z,18.10
2017-06-05T14:12:51.444Z,18.50
2017-06-05T14:15:17.721Z,18.50
2017-06-05T14:17:43.952Z,18.70
2017-06-05T14:20:10.893Z,18.60
2017-06-05T14:22:37.108Z,18.60
2017-06-05T14:25:03.311Z,18.60
2017-06-05T14:27:29.517Z,18.70
2017-06-05T14:29:55.772Z,18.60
2017-06-05T14:32:21.999Z,18.80
2017-06-05T14:34:48.184Z,18.80
2017-06-05T14:37:14.405Z,18.80
2017-06-05T14:39:41.401Z,18.70
2017-06-05T14:42:07.648Z,18.60
2017-06-05T14:44:33.855Z,18.50
2017-06-05T14:47:00.052Z,18.50
2017-06-05T14:49:26.259Z,18.70
2017-06-05T14:51:53.202Z,18.60
2017-06-05T14:54:20.191Z,18.80
2017-06-05T14:56:46.403Z,18.80
2017-06-05T14:59:12.683Z,18.90
2017-06-05T15:01:38.908Z,18.90
2017-06-05T15:04:05.094Z,19.00
2017-06-05T15:06:31.293Z,19.00
2017-06-05T15:08:57.533Z,19.00
2017-06-05T15:11:23.767Z,18.90
2017-06-05T15:13:50.049Z,19.00
2017-06-05T15:16:16.254Z,18.80
2017-06-05T15:18:42.437Z,18.80
2017-06-05T15:21:08.696Z,18.70
2017-06-05T15:23:34.889Z,18.70
2017-06-05T15:26:01.133Z,18.80
2017-06-05T15:28:27.364Z,18.70
2017-06-05T15:30:53.568Z,18.40
2017-06-05T15:33:19.841Z,18.50
2017-06-05T15:35:46.029Z,18.60
2017-06-05T15:38:12.220Z,18.30
2017-06-05T15:40:38.457Z,18.30
2017-06-05T15:43:05.417Z,18.50
2017-06-05T15:45:32.349Z,18.50
2017-06-05T15:47:58.565Z,18.50
2017-06-05T15:50:24.768Z,18.50
2017-06-05T15:52:50.997Z,18.50
2017-06-05T15:55:17.180Z,18.70
2017-06-05T15:57:43.363Z,18.80
2017-06-05T16:00:09.639Z,18.80
2017-06-05T16:02:36.664Z,18.50
2017-06-05T16:05:02.870Z,18.30
2017-06-05T16:07:29.074Z,18.40
2017-06-05T16:09:55.270Z,18.40
2017-06-05T16:12:21.501Z,18.40
2017-06-05T16:14:47.704Z,18.40
2017-06-05T16:17:14.626Z,18.30
2017-06-05T16:19:40.848Z,18.30
2017-06-05T16:22:07.048Z,18.20
2017-06-05T16:24:33.248Z,18.30
2017-06-05T16:26:59.484Z,18.20
2017-06-05T16:29:26.288Z,18.10
2017-06-05T16:31:52.496Z,18.20
2017-06-05T16:34:18.726Z,18.20
2017-06-05T16:36:44.956Z,18.20
2017-06-05T16:39:11.204Z,18.20
2017-06-05T16:41:37.509Z,18.20
2017-06-05T16:44:03.753Z,18.10
2017-06-05T16:46:29.973Z,18.20
2017-06-05T16:48:56.181Z,18.20
2017-06-05T16:51:22.405Z,18.20
2017-06-05T16:53:48.648Z,18.10
2017-06-05T16:56:14.834Z,18.10
2017-06-05T16:58:41.041Z,18.10
2017-06-05T17:01:07.307Z,18.00
2017-06-05T17:03:33.497Z,18.00
2017-06-05T17:05:59.689Z,18.00
2017-06-05T17:08:25.948Z,18.00
2017-06-05T17:10:52.142Z,17.90
2017-06-05T17:13:18.351Z,17.90
2017-06-05T17:15:44.588Z,17.80
2017-06-05T17:18:10.805Z,17.80
2017-06-05T17:20:37.007Z,17.70
2017-06-05T17:23:03.295Z,17.80
2017-06-05T17:25:29.483Z,17.70
2017-06-05T17:27:55.673Z,17.60
2017-06-05T17:30:21.885Z,17.60
2017-06-05T17:32:48.845Z,17.60
2017-06-05T17:35:15.094Z,17.50
2017-06-05T17:37:41.360Z,17.50
2017-06-05T17:40:07.588Z,17.60
2017-06-05T17:42:33.796Z,17.50
2017-06-05T17:45:00.013Z,17.40
2017-06-05T17:47:26.218Z,17.30
2017-06-05T17:49:52.402Z,17.20
2017-06-05T17:52:18.638Z,17.20
2017-06-05T17:54:44.840Z,17.30
2017-06-05T17:57:11.044Z,17.30
2017-06-05T17:59:37.272Z,17.40
2017-06-05T18:02:03.517Z,17.30
2017-06-05T18:04:29.850Z,17.30
2017-06-05T18:06:56.162Z,17.00
2017-06-05T18:09:22.381Z,17.00
2017-06-05T18:11:48.622Z,17.00
2017-06-05T18:14:14.865Z,17.00
2017-06-05T18:16:41.062Z,17.00
2017-06-05T18:19:07.279Z,17.10
2017-06-05T18:21:33.484Z,17.20
2017-06-05T18:23:59.672Z,17.20
2017-06-05T18:26:25.900Z,17.20
2017-06-05T18:28:52.160Z,17.10
2017-06-05T18:31:19.136Z,17.00
2017-06-05T18:33:45.402Z,17.00
2017-06-05T18:36:11.733Z,16.90
2017-06-05T18:38:37.938Z,17.10
2017-06-05T18:41:04.192Z,17.00
2017-06-05T18:43:30.408Z,17.00
2017-06-05T18:45:56.630Z,16.40
2017-06-05T18:48:22.857Z,16.10
2017-06-05T18:50:49.052Z,16.10
2017-06-05T18:53:15.283Z,16.10
2017-06-05T18:55:41.514Z,16.00
2017-06-05T18:58:07.757Z,16.30
2017-06-05T19:00:33.962Z,16.40
2017-06-05T19:03:00.159Z,16.50
2017-06-05T19:05:26.440Z,16.50
2017-06-05T19:07:52.681Z,16.40
2017-06-05T19:10:18.895Z,16.40
2017-06-05T19:12:45.119Z,16.40
2017-06-05T19:15:11.360Z,16.40
2017-06-05T19:17:37.597Z,16.40
2017-06-05T19:20:03.841Z,16.40
2017-06-05T19:22:30.076Z,16.20
2017-06-05T19:24:56.295Z,16.10
2017-06-05T19:27:22.547Z,16.10
2017-06-05T19:29:48.728Z,16.00
2017-06-05T19:32:14.930Z,16.00
2017-06-05T19:34:41.175Z,15.90
2017-06-05T19:37:07.413Z,16.00
2017-06-05T19:39:33.604Z,15.90
2017-06-05T19:42:00.536Z,15.10
2017-06-05T19:44:27.516Z,15.20
2017-06-05T19:46:53.708Z,15.10
2017-06-05T19:49:20.652Z,14.90
2017-06-05T19:51:46.906Z,14.90
2017-06-05T19:54:13.126Z,14.70
2017-06-05T19:56:39.309Z,14.50
2017-06-05T19:59:05.534Z,14.30
2017-06-05T20:01:31.745Z,14.20
2017-06-05T20:03:57.936Z,14.10
2017-06-05T20:06:24.183Z,14.10
2017-06-05T20:08:50.416Z,14.10
2017-06-05T20:11:16.634Z,14.20
2017-06-05T20:13:42.873Z,14.00
2017-06-05T20:16:09.120Z,14.20
2017-06-05T20:18:35.373Z,14.20
2017-06-05T20:21:01.578Z,14.00
2017-06-05T20:23:27.772Z,13.90
2017-06-05T20:25:54.002Z,13.70
2017-06-05T20:28:20.182Z,13.70
2017-06-05T20:30:46.396Z,13.60
2017-06-05T20:33:12.608Z,13.50
2017-06-05T20:35:38.873Z,13.50
2017-06-05T20:38:05.800Z,13.50
2017-06-05T20:40:31.993Z,13.50
2017-06-05T20:42:58.217Z,13.50
2017-06-05T20:45:24.452Z,13.50
2017-06-05T20:47:50.648Z,13.60
2017-06-05T20:50:17.155Z,13.40
2017-06-05T20:52:43.336Z,13.30
2017-06-05T20:55:09.542Z,13.30
2017-06-05T20:57:35.757Z,13.40
2017-06-05T21:00:01.957Z,13.30
2017-06-05T21:02:28.260Z,13.30
2017-06-05T21:04:54.455Z,13.10
2017-06-05T21:07:20.676Z,13.10
2017-06-05T21:09:46.902Z,13.30
2017-06-05T21:12:13.827Z,13.20
2017-06-05T21:14:40.073Z,13.20
2017-06-05T21:17:07.012Z,12.90
2017-06-05T21:19:33.937Z,12.80
2017-06-05T21:22:01.648Z,12.80
2017-06-05T21:24:27.820Z,12.80
2017-06-05T21:26:54.044Z,12.80
2017-06-05T21:29:20.232Z,12.70
2017-06-05T21:31:46.428Z,12.70
2017-06-05T21:34:13.405Z,12.70
2017-06-05T21:36:39.579Z,12.70
2017-06-05T21:39:05.831Z,12.70
2017-06-05T21:41:32.755Z,12.70
2017-06-05T21:43:58.953Z,12.60
2017-06-05T21:46:25.168Z,12.70
2017-06-05T21:48:51.364Z,12.70
2017-06-05T21:51:17.589Z,12.70
2017-06-05T21:53:43.765Z,12.70
2017-06-05T21:56:09.963Z,12.70
2017-06-05T21:58:36.180Z,12.80
2017-06-05T22:01:02.380Z,12.70
2017-06-05T22:03:28.648Z,12.60
2017-06-05T22:05:54.841Z,12.60
2017-06-05T22:08:21.754Z,12.70
2017-06-05T22:10:47.967Z,12.70
2017-06-05T22:13:14.142Z,12.70
2017-06-05T22:15:41.097Z,12.60
2017-06-05T22:18:07.276Z,12.60
2017-06-05T22:20:33.456Z,12.50
2017-06-05T22:22:59.685Z,12.50
2017-06-05T22:25:25.859Z,12.40
2017-06-05T22:27:52.076Z,12.30
2017-06-05T22:30:18.295Z,12.30
2017-06-05T22:32:44.476Z,12.30
2017-06-05T22:35:10.664Z,12.30
2017-06-05T22:37:36.844Z,12.40
2017-06-05T22:40:03.048Z,12.40
2017-06-05T22:42:29.272Z,12.40
2017-06-05T22:44:55.451Z,12.30
2017-06-05T22:47:21.627Z,12.30
2017-06-05T22:49:48.571Z,12.10
2017-06-05T22:52:14.783Z,12.10
2017-06-05T22:54:40.956Z,12.20
2017-06-05T22:57:07.140Z,12.10
2017-06-05T22:59:33.352Z,12.10
2017-06-05T23:01:59.940Z,12.20
2017-06-05T23:04:26.120Z,12.10
2017-06-05T23:06:52.332Z,12.00
2017-06-05T23:09:18.509Z,12.00
2017-06-05T23:11:44.673Z,12.00
2017-06-05T23:14:10.920Z,12.00
2017-06-05T23:16:37.104Z,12.00
2017-06-05T23:19:03.324Z,12.00
2017-06-05T23:21:29.561Z,12.00
2017-06-05T23:23:55.791Z,11.90
2017-06-05T23:26:21.953Z,11.90
2017-06-05T23:28:48.152Z,12.00
2017-06-05T23:31:14.360Z,11.90
2017-06-05T23:33:40.607Z,11.90
2017-06-05T23:36:06.792Z,11.90
2017-06-05T23:38:32.951Z,11.90
2017-06-05T23:40:59.146Z,11.90
2017-06-05T23:43:25.359Z,11.80
2017-06-05T23:45:51.527Z,11.80
2017-06-05T23:48:18.620Z,11.80
2017-06-05T23:50:44.839Z,11.80
2017-06-05T23:53:11.011Z,11.90
2017-06-05T23:55:37.924Z,11.90
2017-06-05T23:58:04.132Z,11.90
